createdAt,value
2018-11-05T00:02:20.911Z,10.00
2018-11-05T00:04:49.201Z,10.30
2018-11-05T00:07:17.523Z,10.10
2018-11-05T00:09:45.761Z,10.30
2018-11-05T00:12:14.048Z,10.60
2018-11-05T00:14:42.490Z,10.10
2018-11-05T00:17:10.884Z,9.40
2018-11-05T00:19:39.218Z,10.00
2018-11-05T00:22:08.197Z,10.20
2018-11-05T00:24:36.531Z,9.80
2018-11-05T00:27:04.891Z,10.00
2018-11-05T00:29:33.250Z,9.80
2018-11-05T00:32:01.522Z,9.90
2018-11-05T00:34:31.297Z,9.90
2018-11-05T00:36:59.802Z,9.60
2018-11-05T00:39:28.100Z,9.50
2018-11-05T00:41:56.391Z,9.30
2018-11-05T00:44:24.785Z,9.60
2018-11-05T00:46:53.369Z,9.30
2018-11-05T00:49:21.648Z,9.30
2018-11-05T00:51:50.030Z,9.30
2018-11-05T00:54:18.424Z,9.30
2018-11-05T00:56:46.845Z,9.30
2018-11-05T00:59:15.457Z,9.30
2018-11-05T01:01:43.972Z,9.20
2018-11-05T01:04:12.476Z,9.30
2018-11-05T01:06:40.839Z,9.10
2018-11-05T01:09:09.405Z,9.10
2018-11-05T01:11:38.452Z,9.00
2018-11-05T01:14:07.586Z,8.90
2018-11-05T01:16:36.032Z,9.00
2018-11-05T01:19:05.018Z,8.70
2018-11-05T01:21:33.383Z,8.50
2018-11-05T01:24:01.670Z,8.20
2018-11-05T01:26:30.265Z,8.50
2018-11-05T01:28:58.627Z,8.80
2018-11-05T01:31:26.915Z,8.60
2018-11-05T01:33:55.412Z,8.80
2018-11-05T01:36:24.950Z,8.10
2018-11-05T01:38:53.267Z,8.60
2018-11-05T01:41:21.740Z,8.20
2018-11-05T01:43:50.421Z,8.50
2018-11-05T01:46:18.659Z,8.10
2018-11-05T01:48:46.901Z,8.70
2018-11-05T01:51:15.296Z,8.50
2018-11-05T01:53:43.544Z,8.70
2018-11-05T01:56:11.950Z,8.30
2018-11-05T01:58:40.322Z,8.50
2018-11-05T02:01:08.737Z,8.50
2018-11-05T02:03:37.100Z,8.50
2018-11-05T02:06:05.549Z,7.90
2018-11-05T02:08:33.956Z,8.90
2018-11-05T02:11:02.383Z,8.50
2018-11-05T02:13:30.955Z,7.90
2018-11-05T02:15:59.191Z,8.50
2018-11-05T02:18:28.211Z,8.40
2018-11-05T02:20:56.583Z,8.30
2018-11-05T02:23:24.831Z,8.30
2018-11-05T02:25:53.200Z,8.40
2018-11-05T02:28:21.502Z,8.40
2018-11-05T02:30:49.784Z,7.40
2018-11-05T02:33:18.140Z,8.20
2018-11-05T02:35:46.525Z,8.30
2018-11-05T02:38:16.487Z,8.20
2018-11-05T02:40:45.001Z,7.90
2018-11-05T02:43:13.485Z,8.30
2018-11-05T02:45:41.707Z,8.20
2018-11-05T02:48:10.138Z,8.10
2018-11-05T02:50:38.992Z,8.30
2018-11-05T02:53:07.448Z,7.60
2018-11-05T02:55:35.830Z,7.80
2018-11-05T02:58:04.199Z,7.30
2018-11-05T03:00:32.776Z,7.50
2018-11-05T03:03:01.285Z,8.10
2018-11-05T03:05:29.471Z,8.00
2018-11-05T03:07:57.867Z,7.80
2018-11-05T03:10:26.300Z,7.40
2018-11-05T03:12:54.666Z,7.20
2018-11-05T03:15:23.026Z,7.30
2018-11-05T03:17:51.417Z,7.70
2018-11-05T03:20:19.735Z,8.10
2018-11-05T03:22:48.187Z,8.00
2018-11-05T03:25:16.581Z,8.00
2018-11-05T03:27:44.860Z,7.70
2018-11-05T03:30:15.293Z,7.30
2018-11-05T03:32:43.956Z,7.70
2018-11-05T03:35:12.954Z,7.50
2018-11-05T03:37:42.176Z,7.50
2018-11-05T03:40:11.516Z,7.60
2018-11-05T03:42:40.579Z,7.90
2018-11-05T03:45:10.862Z,7.60
2018-11-05T03:47:39.345Z,7.80
2018-11-05T03:50:11.166Z,7.70
2018-11-05T03:52:39.664Z,7.90
2018-11-05T03:55:08.904Z,7.90
2018-11-05T03:57:37.996Z,7.60
2018-11-05T04:00:08.134Z,7.70
2018-11-05T04:02:36.503Z,7.50
2018-11-05T04:05:05.411Z,7.80
2018-11-05T04:07:33.824Z,7.70
2018-11-05T04:10:02.138Z,7.20
2018-11-05T04:12:30.504Z,7.60
2018-11-05T04:14:58.824Z,7.30
2018-11-05T04:17:27.247Z,7.90
2018-11-05T04:19:55.567Z,7.90
2018-11-05T04:22:23.966Z,7.80
2018-11-05T04:24:52.246Z,7.90
2018-11-05T04:27:20.558Z,7.70
2018-11-05T04:29:48.875Z,7.80
2018-11-05T04:32:17.138Z,8.10
2018-11-05T04:34:45.499Z,7.90
2018-11-05T04:37:13.814Z,7.80
2018-11-05T04:39:42.075Z,8.20
2018-11-05T04:42:10.357Z,8.10
2018-11-05T04:44:38.802Z,7.90
2018-11-05T04:47:07.109Z,8.20
2018-11-05T04:49:35.440Z,8.20
2018-11-05T04:52:04.108Z,8.50
2018-11-05T04:54:32.499Z,7.80
2018-11-05T04:57:00.935Z,8.30
2018-11-05T04:59:29.241Z,8.50
2018-11-05T05:01:57.708Z,8.50
2018-11-05T05:04:25.966Z,8.20
2018-11-05T05:06:54.242Z,8.50
2018-11-05T05:09:22.726Z,8.50
2018-11-05T05:11:51.084Z,8.40
2018-11-05T05:14:19.379Z,8.70
2018-11-05T05:16:47.806Z,8.60
2018-11-05T05:19:16.071Z,8.80
2018-11-05T05:21:44.396Z,8.90
2018-11-05T05:24:12.798Z,8.20
2018-11-05T05:26:41.177Z,8.90
2018-11-05T05:29:10.238Z,8.80
2018-11-05T05:31:38.610Z,8.80
2018-11-05T05:34:07.178Z,8.90
2018-11-05T05:36:35.917Z,8.90
2018-11-05T05:39:06.559Z,8.80
2018-11-05T05:41:34.882Z,8.90
2018-11-05T05:44:03.689Z,8.80
2018-11-05T05:46:31.974Z,8.90
2018-11-05T05:49:00.282Z,9.20
2018-11-05T05:51:28.687Z,9.20
2018-11-05T05:53:56.963Z,8.60
2018-11-05T05:56:25.363Z,9.40
2018-11-05T05:58:53.880Z,9.10
2018-11-05T06:01:22.412Z,9.20
2018-11-05T06:03:50.814Z,9.30
2018-11-05T06:06:19.408Z,9.30
2018-11-05T06:08:47.780Z,9.50
2018-11-05T06:11:16.509Z,9.50
2018-11-05T06:13:44.883Z,9.50
2018-11-05T06:16:14.750Z,9.30
2018-11-05T06:18:43.383Z,8.90
2018-11-05T06:21:11.981Z,9.50
2018-11-05T06:23:40.397Z,9.90
2018-11-05T06:26:08.888Z,9.40
2018-11-05T06:28:37.299Z,9.60
2018-11-05T06:31:05.852Z,9.70
2018-11-05T06:33:34.285Z,9.60
2018-11-05T06:36:03.146Z,9.50
2018-11-05T06:38:31.503Z,9.60
2018-11-05T06:41:00.151Z,9.50
2018-11-05T06:43:28.416Z,9.80
2018-11-05T06:45:57.031Z,9.60
2018-11-05T06:48:25.372Z,9.60
2018-11-05T06:50:53.801Z,9.70
2018-11-05T06:53:22.279Z,9.80
2018-11-05T06:55:50.717Z,9.70
2018-11-05T06:58:19.004Z,10.00
2018-11-05T07:00:47.531Z,10.00
2018-11-05T07:03:15.870Z,9.40
2018-11-05T07:05:44.365Z,10.10
2018-11-05T07:08:12.938Z,9.90
2018-11-05T07:10:41.271Z,9.80
2018-11-05T07:13:09.621Z,9.80
2018-11-05T07:15:38.357Z,10.10
2018-11-05T07:18:06.885Z,10.00
2018-11-05T07:20:35.415Z,9.90
2018-11-05T07:23:03.982Z,9.50
2018-11-05T07:25:33.675Z,10.20
2018-11-05T07:28:02.194Z,10.00
2018-11-05T07:30:30.715Z,10.50
2018-11-05T07:32:59.405Z,9.60
2018-11-05T07:35:27.795Z,10.20
2018-11-05T07:37:56.283Z,9.60
2018-11-05T07:40:24.591Z,10.10
2018-11-05T07:42:52.910Z,10.70
2018-11-05T07:45:22.524Z,10.40
2018-11-05T07:47:51.038Z,9.80
2018-11-05T07:50:20.383Z,10.50
2018-11-05T07:52:49.175Z,11.00
2018-11-05T07:55:18.406Z,10.40
2018-11-05T07:57:47.846Z,11.00
2018-11-05T08:00:22.184Z,11.00
2018-11-05T08:02:52.415Z,11.20
2018-11-05T08:05:21.539Z,10.80
2018-11-05T08:07:50.206Z,10.90
2018-11-05T08:10:18.667Z,11.30
2018-11-05T08:12:47.084Z,10.90
2018-11-05T08:15:16.810Z,11.10
2018-11-05T08:17:46.140Z,11.40
2018-11-05T08:20:14.551Z,11.70
2018-11-05T08:22:42.871Z,11.30
2018-11-05T08:25:12.001Z,11.50
2018-11-05T08:27:40.382Z,11.70
2018-11-05T08:30:17.483Z,11.60
2018-11-05T08:32:45.930Z,11.30
2018-11-05T08:35:14.543Z,11.70
2018-11-05T08:37:44.002Z,11.50
2018-11-05T08:40:15.523Z,11.80
2018-11-05T08:42:44.682Z,11.70
2018-11-05T08:45:14.422Z,11.50
2018-11-05T08:47:42.814Z,11.60
2018-11-05T08:50:13.961Z,11.30
2018-11-05T08:52:42.382Z,11.80
2018-11-05T08:55:15.549Z,11.80
2018-11-05T08:57:44.019Z,11.40
2018-11-05T09:00:46.911Z,11.60
2018-11-05T09:03:15.265Z,11.70
2018-11-05T09:05:43.706Z,11.10
2018-11-05T09:08:11.895Z,11.90
2018-11-05T09:10:40.513Z,12.10
2018-11-05T09:13:08.391Z,11.80
2018-11-05T09:15:36.664Z,12.40
2018-11-05T09:18:04.928Z,12.50
2018-11-05T09:20:33.130Z,12.60
2018-11-05T09:23:01.827Z,12.90
2018-11-05T09:25:30.216Z,13.20
2018-11-05T09:27:58.611Z,12.90
2018-11-05T09:30:27.825Z,13.00
2018-11-05T09:32:56.144Z,13.40
2018-11-05T09:35:24.458Z,13.30
2018-11-05T09:37:53.780Z,13.70
2018-11-05T09:40:23.456Z,13.70
2018-11-05T09:42:52.744Z,13.90
2018-11-05T09:45:26.639Z,13.80
2018-11-05T09:47:55.050Z,14.10
2018-11-05T09:50:23.486Z,14.10
2018-11-05T09:52:53.645Z,13.30
2018-11-05T09:55:24.281Z,14.20
2018-11-05T09:57:53.616Z,14.30
2018-11-05T10:00:24.141Z,13.80
2018-11-05T10:02:58.609Z,14.60
2018-11-05T10:05:27.104Z,14.40
2018-11-05T10:07:55.615Z,14.70
2018-11-05T10:10:24.100Z,14.80
2018-11-05T10:12:52.554Z,14.80
2018-11-05T10:15:21.024Z,14.30
2018-11-05T10:20:23.816Z,14.80
2018-11-05T10:22:52.158Z,15.00
2018-11-05T10:25:20.716Z,14.90
2018-11-05T10:27:49.994Z,14.80
2018-11-05T10:30:19.594Z,15.20
2018-11-05T10:32:47.810Z,15.00
2018-11-05T10:35:16.739Z,15.50
2018-11-05T10:37:45.739Z,15.80
2018-11-05T10:40:16.703Z,15.80
2018-11-05T10:42:46.040Z,15.20
2018-11-05T10:45:15.582Z,16.00
2018-11-05T10:47:44.645Z,15.30
2018-11-05T10:50:14.244Z,16.00
2018-11-05T10:52:43.970Z,15.70
2018-11-05T10:55:13.473Z,15.50
2018-11-05T10:57:42.458Z,15.80
2018-11-05T11:00:19.890Z,15.40
2018-11-05T11:02:53.684Z,16.00
2018-11-05T11:05:24.709Z,16.40
2018-11-05T11:07:54.841Z,15.60
2018-11-05T11:10:23.902Z,16.10
2018-11-05T11:12:52.443Z,16.30
2018-11-05T11:15:22.648Z,16.20
2018-11-05T11:17:51.015Z,16.10
2018-11-05T11:20:19.437Z,16.40
2018-11-05T11:22:49.156Z,16.90
2018-11-05T11:25:17.585Z,17.50
2018-11-05T11:27:46.025Z,17.30
2018-11-05T11:30:15.905Z,17.10
2018-11-05T11:32:45.109Z,17.10
2018-11-05T11:35:15.201Z,17.70
2018-11-05T11:37:44.198Z,17.70
2018-11-05T11:40:16.710Z,17.30
2018-11-05T11:42:46.077Z,17.90
2018-11-05T11:45:15.332Z,17.80
2018-11-05T11:47:43.645Z,17.40
2018-11-05T11:50:13.298Z,18.00
2018-11-05T11:52:41.800Z,17.60
2018-11-05T11:55:12.706Z,18.10
2018-11-05T11:57:41.559Z,17.70
2018-11-05T12:00:14.167Z,18.60
2018-11-05T12:02:43.304Z,18.80
2018-11-05T12:05:12.046Z,18.70
2018-11-05T12:07:40.259Z,18.70
2018-11-05T12:10:15.520Z,18.60
2018-11-05T12:12:44.103Z,17.90
2018-11-05T12:15:13.459Z,18.50
2018-11-05T12:17:42.257Z,18.80
2018-11-05T12:20:13.803Z,18.70
2018-11-05T12:22:42.797Z,18.80
2018-11-05T12:25:11.154Z,18.80
2018-11-05T12:27:39.655Z,18.70
2018-11-05T12:30:14.038Z,18.20
2018-11-05T12:32:43.106Z,18.60
2018-11-05T12:35:13.070Z,18.70
2018-11-05T12:37:42.889Z,18.90
2018-11-05T12:40:13.393Z,18.90
2018-11-05T12:42:42.648Z,19.00
2018-11-05T12:45:11.102Z,18.50
2018-11-05T12:47:39.831Z,18.90
2018-11-05T12:50:12.013Z,19.20
2018-11-05T12:52:41.993Z,19.00
2018-11-05T12:55:11.498Z,19.90
2018-11-05T12:57:39.877Z,19.70
2018-11-05T13:00:14.200Z,19.20
2018-11-05T13:02:42.680Z,18.80
2018-11-05T13:05:12.069Z,19.60
2018-11-05T13:07:40.669Z,19.50
2018-11-05T13:10:11.629Z,19.70
2018-11-05T13:12:40.183Z,19.50
2018-11-05T13:15:09.456Z,19.70
2018-11-05T13:17:38.511Z,19.80
2018-11-05T13:20:12.029Z,19.70
2018-11-05T13:22:40.550Z,19.60
2018-11-05T13:25:08.945Z,18.90
2018-11-05T13:27:37.884Z,19.10
2018-11-05T13:30:10.109Z,19.70
2018-11-05T13:32:39.170Z,19.80
2018-11-05T13:35:10.082Z,19.30
2018-11-05T13:37:39.101Z,19.70
2018-11-05T13:40:10.284Z,19.40
2018-11-05T13:42:38.504Z,19.80
2018-11-05T13:45:08.658Z,19.80
2018-11-05T13:47:37.745Z,19.40
2018-11-05T13:50:06.249Z,19.60
2018-11-05T13:52:34.491Z,19.10
2018-11-05T13:55:03.518Z,19.40
2018-11-05T13:57:31.769Z,19.20
2018-11-05T14:00:00.034Z,18.80
2018-11-05T14:02:28.362Z,18.60
2018-11-05T14:04:56.592Z,18.60
2018-11-05T14:07:24.879Z,18.60
2018-11-05T14:09:53.215Z,18.70
2018-11-05T14:12:21.439Z,18.50
2018-11-05T14:14:50.597Z,18.80
2018-11-05T14:17:19.239Z,18.60
2018-11-05T14:19:47.420Z,19.10
2018-11-05T14:22:15.658Z,18.50
2018-11-05T14:24:44.114Z,18.80
2018-11-05T14:27:13.477Z,18.80
2018-11-05T14:29:42.412Z,18.70
2018-11-05T14:32:11.292Z,18.80
2018-11-05T14:34:39.649Z,18.30
2018-11-05T14:37:11.091Z,18.50
2018-11-05T14:39:40.545Z,18.40
2018-11-05T14:42:08.995Z,18.20
2018-11-05T14:44:37.379Z,18.00
2018-11-05T14:47:05.889Z,18.50
2018-11-05T14:49:34.412Z,18.00
2018-11-05T14:52:02.920Z,17.50
2018-11-05T14:54:32.452Z,17.90
2018-11-05T14:57:01.618Z,17.70
2018-11-05T14:59:29.904Z,17.60
2018-11-05T15:02:03.930Z,17.60
2018-11-05T15:04:32.306Z,17.00
2018-11-05T15:07:00.574Z,16.60
2018-11-05T15:09:29.306Z,16.70
2018-11-05T15:11:58.474Z,16.60
2018-11-05T15:14:26.789Z,16.20
2018-11-05T15:16:56.366Z,15.80
2018-11-05T15:19:25.008Z,16.30
2018-11-05T15:21:55.071Z,16.60
2018-11-05T15:24:23.466Z,16.10
2018-11-05T15:26:51.924Z,15.50
2018-11-05T15:29:20.476Z,16.10
2018-11-05T15:31:49.851Z,16.00
2018-11-05T15:34:18.214Z,15.90
2018-11-05T15:36:46.626Z,15.70
2018-11-05T15:39:15.028Z,15.40
2018-11-05T15:41:43.429Z,15.00
2018-11-05T15:44:11.958Z,15.50
2018-11-05T15:46:40.320Z,15.10
2018-11-05T15:49:08.706Z,15.30
2018-11-05T15:51:37.526Z,15.00
2018-11-05T15:54:06.919Z,14.90
2018-11-05T15:56:35.319Z,14.60
2018-11-05T15:59:03.665Z,14.50
2018-11-05T16:01:31.991Z,14.70
2018-11-05T16:04:00.365Z,14.70
2018-11-05T16:06:28.713Z,14.30
2018-11-05T16:08:57.836Z,13.40
2018-11-05T16:11:26.258Z,13.70
2018-11-05T16:13:54.620Z,13.80
2018-11-05T16:16:23.036Z,13.80
2018-11-05T16:18:51.389Z,13.80
2018-11-05T16:21:19.715Z,13.50
2018-11-05T16:23:48.240Z,13.80
2018-11-05T16:26:16.646Z,13.70
2018-11-05T16:28:45.011Z,13.40
2018-11-05T16:31:13.508Z,13.00
2018-11-05T16:33:41.960Z,13.20
2018-11-05T16:36:10.244Z,13.00
2018-11-05T16:38:38.844Z,13.00
2018-11-05T16:41:08.015Z,13.00
2018-11-05T16:43:36.308Z,13.40
2018-11-05T16:46:06.075Z,12.70
2018-11-05T16:48:34.440Z,12.80
2018-11-05T16:51:03.020Z,12.70
2018-11-05T16:53:31.663Z,12.60
2018-11-05T16:55:59.900Z,12.70
2018-11-05T16:58:28.369Z,12.50
2018-11-05T17:00:57.016Z,12.20
2018-11-05T17:03:26.211Z,12.50
2018-11-05T17:05:54.595Z,12.60
2018-11-05T17:08:23.921Z,12.50
2018-11-05T17:10:52.256Z,12.30
2018-11-05T17:13:20.921Z,11.60
2018-11-05T17:15:49.145Z,12.20
2018-11-05T17:18:17.610Z,12.10
2018-11-05T17:20:46.032Z,12.10
2018-11-05T17:23:15.067Z,11.90
2018-11-05T17:25:43.405Z,11.60
2018-11-05T17:28:11.883Z,11.80
2018-11-05T17:30:40.087Z,11.50
2018-11-05T17:33:08.352Z,11.70
2018-11-05T17:35:36.634Z,11.50
2018-11-05T17:38:05.447Z,11.50
2018-11-05T17:40:33.765Z,11.50
2018-11-05T17:43:02.229Z,11.60
2018-11-05T17:45:30.497Z,11.70
2018-11-05T17:47:58.746Z,11.60
2018-11-05T17:50:27.156Z,11.50
2018-11-05T17:52:55.544Z,11.50
2018-11-05T17:55:23.989Z,10.80
2018-11-05T17:57:52.977Z,10.80
2018-11-05T18:00:22.360Z,11.10
2018-11-05T18:02:52.265Z,10.90
2018-11-05T18:05:20.723Z,11.00
2018-11-05T18:07:49.839Z,11.30
2018-11-05T18:10:18.486Z,11.10
2018-11-05T18:12:47.040Z,11.30
2018-11-05T18:15:15.509Z,10.90
2018-11-05T18:17:44.823Z,10.90
2018-11-05T18:20:14.081Z,10.50
2018-11-05T18:22:42.652Z,10.70
2018-11-05T18:25:16.177Z,10.40
2018-11-05T18:27:44.620Z,11.10
2018-11-05T18:30:13.450Z,10.80
2018-11-05T18:32:42.527Z,11.10
2018-11-05T18:35:12.557Z,11.10
2018-11-05T18:37:41.995Z,10.90
2018-11-05T18:40:13.121Z,10.60
2018-11-05T18:42:42.346Z,10.20
2018-11-05T18:45:10.891Z,10.40
2018-11-05T18:47:39.209Z,10.90
2018-11-05T18:50:10.858Z,10.50
2018-11-05T18:52:39.556Z,10.80
2018-11-05T18:55:11.203Z,10.70
2018-11-05T18:57:39.962Z,10.60
2018-11-05T19:00:16.280Z,10.20
2018-11-05T19:02:45.415Z,10.40
2018-11-05T19:05:13.827Z,10.40
2018-11-05T19:07:42.245Z,10.70
2018-11-05T19:10:11.358Z,10.20
2018-11-05T19:12:39.742Z,10.70
2018-11-05T19:15:09.930Z,10.00
2018-11-05T19:17:38.438Z,10.60
2018-11-05T19:20:07.463Z,10.20
2018-11-05T19:22:36.194Z,9.90
2018-11-05T19:25:05.587Z,10.00
2018-11-05T19:27:34.304Z,10.10
2018-11-05T19:30:02.957Z,10.40
2018-11-05T19:32:31.505Z,9.90
2018-11-05T19:34:59.771Z,10.40
2018-11-05T19:37:28.168Z,10.30
2018-11-05T19:39:56.640Z,9.80
2018-11-05T19:42:25.476Z,9.90
2018-11-05T19:44:53.779Z,9.90
2018-11-05T19:47:22.036Z,10.00
2018-11-05T19:49:50.831Z,10.20
2018-11-05T19:52:19.017Z,10.00
2018-11-05T19:54:47.255Z,10.00
2018-11-05T19:57:15.821Z,9.80
2018-11-05T19:59:44.182Z,10.00
2018-11-05T20:02:12.543Z,9.90
2018-11-05T20:04:40.868Z,10.20
2018-11-05T20:07:09.115Z,9.70
2018-11-05T20:09:37.528Z,9.30
2018-11-05T20:12:06.581Z,9.60
2018-11-05T20:14:35.238Z,9.60
2018-11-05T20:17:03.588Z,9.50
2018-11-05T20:19:31.849Z,9.70
2018-11-05T20:22:00.854Z,9.50
2018-11-05T20:24:29.159Z,9.60
2018-11-05T20:26:57.506Z,9.80
2018-11-05T20:29:25.965Z,9.70
2018-11-05T20:31:54.604Z,9.50
2018-11-05T20:34:22.918Z,9.40
2018-11-05T20:36:51.687Z,9.60
2018-11-05T20:39:19.935Z,10.00
2018-11-05T20:41:48.412Z,9.50
2018-11-05T20:44:16.712Z,9.60
2018-11-05T20:46:45.214Z,9.50
2018-11-05T20:49:13.378Z,9.50
2018-11-05T20:51:41.771Z,9.60
2018-11-05T20:54:10.073Z,9.20
2018-11-05T20:56:38.792Z,9.40
2018-11-05T20:59:07.742Z,9.50
2018-11-05T21:01:35.995Z,9.20
2018-11-05T21:04:04.456Z,9.30
2018-11-05T21:06:32.792Z,9.30
2018-11-05T21:09:01.059Z,9.50
2018-11-05T21:11:29.387Z,9.50
2018-11-05T21:13:57.805Z,8.80
2018-11-05T21:16:26.125Z,9.80
2018-11-05T21:18:54.471Z,9.60
2018-11-05T21:21:22.816Z,8.70
2018-11-05T21:23:51.058Z,9.30
2018-11-05T21:26:19.411Z,9.50
2018-11-05T21:28:47.639Z,9.30
2018-11-05T21:31:15.864Z,9.20
2018-11-05T21:33:44.374Z,9.30
2018-11-05T21:36:12.657Z,9.20
2018-11-05T21:38:40.909Z,9.30
2018-11-05T21:41:09.242Z,9.20
2018-11-05T21:43:37.541Z,9.20
2018-11-05T21:46:06.371Z,8.40
2018-11-05T21:48:34.755Z,9.10
2018-11-05T21:51:02.991Z,8.80
2018-11-05T21:53:31.242Z,9.20
2018-11-05T21:55:59.560Z,9.20
2018-11-05T21:58:27.799Z,9.20
2018-11-05T22:00:56.159Z,8.90
2018-11-05T22:03:24.616Z,9.20
2018-11-05T22:05:52.836Z,9.10
2018-11-05T22:08:21.259Z,8.90
2018-11-05T22:10:49.608Z,8.90
2018-11-05T22:13:17.975Z,8.90
2018-11-05T22:15:47.221Z,9.00
2018-11-05T22:18:16.396Z,8.80
2018-11-05T22:20:44.597Z,9.00
2018-11-05T22:23:13.006Z,8.60
2018-11-05T22:25:41.231Z,8.00
2018-11-05T22:28:09.585Z,8.50
2018-11-05T22:30:37.815Z,8.60
2018-11-05T22:33:06.385Z,8.50
2018-11-05T22:35:34.687Z,8.60
2018-11-05T22:38:02.981Z,8.80
2018-11-05T22:40:31.132Z,8.70
2018-11-05T22:42:59.439Z,8.70
2018-11-05T22:45:27.687Z,8.80
2018-11-05T22:47:55.872Z,8.10
2018-11-05T22:50:24.841Z,8.70
2018-11-05T22:52:53.208Z,9.00
2018-11-05T22:55:21.385Z,9.10
2018-11-05T22:57:49.584Z,8.80
2018-11-05T23:00:23.919Z,8.90
2018-11-05T23:02:57.654Z,9.00
2018-11-05T23:05:25.965Z,8.80
2018-11-05T23:07:55.137Z,8.60
2018-11-05T23:10:23.355Z,8.00
2018-11-05T23:12:51.682Z,8.80
2018-11-05T23:15:20.516Z,8.90
2018-11-05T23:17:49.169Z,8.70
2018-11-05T23:20:17.450Z,8.30
2018-11-05T23:22:45.669Z,9.00
2018-11-05T23:25:14.028Z,9.10
2018-11-05T23:27:42.335Z,9.10
2018-11-05T23:30:12.315Z,9.00
2018-11-05T23:32:40.707Z,9.20
2018-11-05T23:35:09.807Z,9.10
2018-11-05T23:37:39.111Z,9.20
2018-11-05T23:40:08.082Z,9.10
2018-11-05T23:42:37.334Z,9.00
2018-11-05T23:45:10.054Z,8.60
2018-11-05T23:47:38.191Z,9.20
2018-11-05T23:50:06.979Z,8.90
2018-11-05T23:52:37.097Z,9.00
2018-11-05T23:55:06.378Z,8.90
2018-11-05T23:57:34.721Z,8.90
